createdAt,value
2018-08-19T00:00:00.346Z,14.35
2018-08-19T00:02:30.426Z,11.65
2018-08-19T00:05:11.888Z,13.93
2018-08-19T00:07:41.837Z,16.70
2018-08-19T00:10:11.817Z,12.98
2018-08-19T00:12:45.516Z,11.97
2018-08-19T00:15:16.103Z,14.83
2018-08-19T00:17:46.102Z,11.73
2018-08-19T00:20:16.382Z,10.30
2018-08-19T00:22:47.417Z,10.93
2018-08-19T00:25:33.566Z,11.73
2018-08-19T00:28:05.602Z,11.73
2018-08-19T00:30:35.633Z,19.00
2018-08-19T00:33:05.886Z,22.10
2018-08-19T00:35:35.698Z,17.40
2018-08-19T00:38:05.723Z,17.00
2018-08-19T00:40:35.699Z,15.83
2018-08-19T00:43:05.707Z,16.80
2018-08-19T00:45:35.777Z,12.27
2018-08-19T00:48:05.797Z,11.97
2018-08-19T00:50:35.646Z,13.53
2018-08-19T00:53:05.982Z,11.93
2018-08-19T00:55:41.332Z,12.93
2018-08-19T00:58:17.867Z,13.22
2018-08-19T01:00:47.872Z,10.27
2018-08-19T01:03:17.992Z,12.83
2018-08-19T01:05:47.917Z,10.77
2018-08-19T01:08:17.789Z,14.55
2018-08-19T01:10:47.847Z,17.07
2018-08-19T01:13:17.814Z,15.23
2018-08-19T01:15:47.678Z,15.13
2018-08-19T01:18:17.619Z,12.90
2018-08-19T01:20:47.897Z,12.37
2018-08-19T01:23:17.807Z,9.98
2018-08-19T01:25:47.852Z,11.53
2018-08-19T01:28:17.623Z,9.70
2018-08-19T01:30:47.684Z,8.80
2018-08-19T01:33:17.547Z,13.78
2018-08-19T01:35:47.459Z,10.25
2018-08-19T01:38:17.538Z,10.73
2018-08-19T01:40:47.519Z,12.50
2018-08-19T01:43:17.637Z,12.40
2018-08-19T01:45:48.366Z,10.70
2018-08-19T01:48:18.301Z,13.60
2018-08-19T01:50:48.374Z,8.73
2018-08-19T01:53:18.283Z,8.40
2018-08-19T01:55:48.223Z,10.27
2018-08-19T01:58:18.102Z,10.17
2018-08-19T02:00:48.091Z,10.87
2018-08-19T02:03:18.050Z,12.73
2018-08-19T02:05:47.869Z,10.73
2018-08-19T02:08:17.984Z,9.90
2018-08-19T02:10:47.773Z,13.53
2018-08-19T02:13:17.737Z,11.00
2018-08-19T02:15:47.741Z,9.55
2018-08-19T02:18:17.499Z,13.10
2018-08-19T02:20:47.359Z,10.93
2018-08-19T02:23:17.444Z,13.20
2018-08-19T02:25:48.698Z,12.80
2018-08-19T02:28:22.472Z,10.50
2018-08-19T02:31:00.219Z,9.10
2018-08-19T02:33:34.377Z,10.83
2018-08-19T02:36:06.926Z,9.67
2018-08-19T02:38:38.267Z,11.10
2018-08-19T02:41:08.643Z,14.07
2018-08-19T02:43:46.748Z,11.83
2018-08-19T02:46:17.232Z,11.65
2018-08-19T02:48:50.188Z,13.10
2018-08-19T02:51:20.946Z,9.07
2018-08-19T02:53:51.666Z,18.03
2018-08-19T02:56:21.465Z,9.90
2018-08-19T02:58:51.314Z,10.30
2018-08-19T03:01:21.464Z,12.27
2018-08-19T03:03:51.407Z,10.20
2018-08-19T03:06:21.273Z,13.37
2018-08-19T03:08:56.527Z,12.30
2018-08-19T03:11:26.363Z,11.93
2018-08-19T03:13:56.954Z,13.73
2018-08-19T03:16:26.884Z,10.10
2018-08-19T03:18:57.110Z,13.13
2018-08-19T03:21:27.276Z,11.53
2018-08-19T03:23:57.190Z,14.00
2018-08-19T03:26:27.993Z,12.10
2018-08-19T03:28:59.313Z,12.43
2018-08-19T03:31:29.204Z,13.07
2018-08-19T03:33:59.152Z,11.17
2018-08-19T03:36:29.045Z,9.35
2018-08-19T03:39:12.009Z,9.97
2018-08-19T03:41:41.805Z,11.70
2018-08-19T03:44:11.778Z,10.77
2018-08-19T03:46:41.754Z,8.90
2018-08-19T03:49:12.204Z,13.63
2018-08-19T03:51:42.416Z,13.43
2018-08-19T03:54:12.442Z,14.30
2018-08-19T03:56:42.302Z,13.05
2018-08-19T03:59:13.772Z,10.95
2018-08-19T04:01:44.876Z,11.90
2018-08-19T04:04:17.169Z,12.47
2018-08-19T04:06:47.140Z,14.77
2018-08-19T04:09:17.142Z,10.90
2018-08-19T04:12:02.684Z,11.88
2018-08-19T04:14:32.647Z,12.27
2018-08-19T04:17:03.379Z,16.07
2018-08-19T04:19:34.923Z,13.63
2018-08-19T04:22:06.492Z,14.20
2018-08-19T04:24:37.002Z,11.93
2018-08-19T04:27:09.483Z,15.08
2018-08-19T04:29:39.462Z,11.07
2018-08-19T04:32:19.540Z,23.07
2018-08-19T04:34:49.647Z,13.53
2018-08-19T04:37:19.690Z,11.07
2018-08-19T04:39:49.837Z,15.03
2018-08-19T04:42:20.005Z,12.73
2018-08-19T04:44:49.875Z,15.27
2018-08-19T04:47:32.531Z,14.13
2018-08-19T04:50:02.282Z,10.03
2018-08-19T04:52:34.138Z,12.75
2018-08-19T04:55:04.093Z,11.03
2018-08-19T04:57:33.887Z,11.30
2018-08-19T05:00:03.990Z,11.93
2018-08-19T05:02:34.022Z,13.00
2018-08-19T05:05:03.837Z,13.18
2018-08-19T05:07:33.895Z,14.10
2018-08-19T05:10:03.958Z,13.73
2018-08-19T05:12:33.883Z,15.97
2018-08-19T05:15:03.893Z,12.73
2018-08-19T05:17:33.802Z,12.77
2018-08-19T05:20:16.598Z,14.33
2018-08-19T05:22:46.492Z,14.53
2018-08-19T05:25:16.313Z,13.27
2018-08-19T05:27:52.009Z,10.07
2018-08-19T05:30:21.892Z,14.70
2018-08-19T05:32:55.763Z,15.60
2018-08-19T05:35:26.053Z,12.03
2018-08-19T05:37:56.184Z,13.60
2018-08-19T05:40:26.073Z,12.37
2018-08-19T05:42:55.988Z,12.77
2018-08-19T05:45:26.031Z,13.23
2018-08-19T05:48:09.340Z,15.03
2018-08-19T05:50:39.452Z,13.63
2018-08-19T05:53:09.239Z,13.98
2018-08-19T05:55:39.349Z,13.37
2018-08-19T05:58:09.291Z,12.43
2018-08-19T06:00:43.933Z,14.77
2018-08-19T06:03:13.718Z,13.90
2018-08-19T06:05:43.589Z,12.33
2018-08-19T06:08:15.557Z,13.13
2018-08-19T06:10:45.611Z,13.30
2018-08-19T06:13:15.390Z,10.48
2018-08-19T06:15:45.621Z,12.63
2018-08-19T06:18:15.403Z,12.10
2018-08-19T06:20:46.230Z,12.77
2018-08-19T06:23:15.944Z,13.13
2018-08-19T06:25:45.558Z,14.23
2018-08-19T06:28:15.069Z,13.30
2018-08-19T06:30:45.034Z,12.30
2018-08-19T06:33:15.016Z,14.00
2018-08-19T06:35:44.809Z,12.40
2018-08-19T06:38:14.289Z,14.30
2018-08-19T06:40:44.064Z,11.18
2018-08-19T06:43:13.634Z,13.83
2018-08-19T06:45:43.177Z,13.83
2018-08-19T06:48:12.948Z,11.78
2018-08-19T06:50:43.119Z,10.57
2018-08-19T06:53:16.911Z,12.97
2018-08-19T06:55:46.763Z,17.50
2018-08-19T06:58:16.673Z,11.10
2018-08-19T07:00:46.800Z,14.33
2018-08-19T07:03:16.864Z,12.83
2018-08-19T07:06:02.178Z,11.20
2018-08-19T07:08:32.363Z,10.78
2018-08-19T07:11:02.628Z,14.25
2018-08-19T07:13:32.550Z,10.43
2018-08-19T07:16:01.998Z,10.63
2018-08-19T07:18:31.873Z,10.33
2018-08-19T07:21:01.509Z,8.47
2018-08-19T07:23:31.376Z,8.75
2018-08-19T07:26:00.840Z,11.80
2018-08-19T07:28:30.224Z,8.03
2018-08-19T07:31:00.234Z,10.07
2018-08-19T07:33:30.788Z,10.80
2018-08-19T07:36:00.712Z,7.37
2018-08-19T07:38:30.684Z,9.88
2018-08-19T07:41:00.628Z,7.13
2018-08-19T07:43:30.435Z,9.10
2018-08-19T07:46:00.325Z,8.57
2018-08-19T07:48:30.245Z,8.00
2018-08-19T07:51:00.204Z,9.57
2018-08-19T07:53:30.056Z,10.53
2018-08-19T07:55:59.988Z,9.50
2018-08-19T07:58:41.725Z,13.03
2018-08-19T08:01:11.805Z,13.80
2018-08-19T08:03:41.681Z,11.50
2018-08-19T08:06:11.137Z,13.83
2018-08-19T08:08:40.886Z,7.37
2018-08-19T08:11:10.433Z,9.97
2018-08-19T08:13:40.046Z,9.43
2018-08-19T08:16:09.608Z,7.17
2018-08-19T08:18:39.250Z,7.17
2018-08-19T08:21:15.511Z,7.63
2018-08-19T08:23:45.504Z,9.85
2018-08-19T08:26:15.699Z,7.30
2018-08-19T08:28:53.760Z,7.78
2018-08-19T08:31:23.973Z,7.40
2018-08-19T08:33:54.195Z,7.23
2018-08-19T08:36:24.301Z,6.23
2018-08-19T08:38:54.306Z,5.90
2018-08-19T08:41:24.224Z,6.53
2018-08-19T08:43:54.018Z,5.87
2018-08-19T08:46:23.930Z,9.60
2018-08-19T08:48:53.874Z,6.62
2018-08-19T08:51:23.966Z,7.03
2018-08-19T08:53:53.556Z,6.80
2018-08-19T08:56:23.687Z,6.70
2018-08-19T08:58:53.104Z,12.80
2018-08-19T09:01:22.639Z,7.63
2018-08-19T09:03:52.416Z,6.53
2018-08-19T09:06:27.194Z,7.83
2018-08-19T09:08:57.743Z,9.90
2018-08-19T09:11:27.465Z,6.97
2018-08-19T09:13:57.256Z,12.55
2018-08-19T09:16:27.072Z,9.40
2018-08-19T09:18:57.180Z,9.77
2018-08-19T09:26:19.848Z,12.93
2018-08-19T09:28:49.368Z,9.07
2018-08-19T09:31:19.069Z,10.38
2018-08-19T09:33:48.530Z,9.67
2018-08-19T09:36:18.124Z,13.38
2018-08-19T09:38:47.562Z,11.73
2018-08-19T09:41:17.258Z,7.47
2018-08-19T09:43:46.774Z,8.37
2018-08-19T09:46:16.375Z,9.50
2018-08-19T09:48:46.226Z,8.60
2018-08-19T09:51:16.275Z,9.95
2018-08-19T09:53:46.469Z,9.63
2018-08-19T09:56:16.246Z,11.30
2018-08-19T09:58:50.934Z,10.87
2018-08-19T10:01:25.986Z,11.17
2018-08-19T10:03:55.849Z,11.36
2018-08-19T10:06:25.669Z,12.07
2018-08-19T10:08:55.146Z,11.03
2018-08-19T10:11:24.665Z,11.97
2018-08-19T10:13:59.095Z,8.83
2018-08-19T10:16:41.716Z,12.53
2018-08-19T10:19:11.684Z,10.50
2018-08-19T10:21:41.253Z,8.93
2018-08-19T10:24:33.984Z,12.43
2018-08-19T10:27:08.550Z,9.50
2018-08-19T10:29:38.415Z,10.13
2018-08-19T10:32:08.219Z,9.73
2018-08-19T10:34:38.134Z,9.83
2018-08-19T10:37:08.318Z,11.17
2018-08-19T10:39:38.359Z,9.97
2018-08-19T10:42:21.830Z,9.60
2018-08-19T10:44:52.552Z,12.40
2018-08-19T10:47:22.313Z,8.38
2018-08-19T10:49:58.626Z,8.80
2018-08-19T10:52:30.851Z,9.83
2018-08-19T10:55:01.404Z,7.53
2018-08-19T10:57:31.975Z,8.15
2018-08-19T11:00:02.108Z,8.07
2018-08-19T11:02:32.178Z,7.45
2018-08-19T11:05:02.131Z,9.13
2018-08-19T11:07:32.175Z,10.20
2018-08-19T11:10:21.675Z,8.15
2018-08-19T11:12:54.459Z,9.23
2018-08-19T11:15:49.990Z,11.23
2018-08-19T11:18:43.389Z,8.10
2018-08-19T11:21:14.820Z,9.03
2018-08-19T11:23:46.305Z,9.83
2018-08-19T11:26:16.396Z,9.20
2018-08-19T11:28:51.938Z,9.30
2018-08-19T11:31:27.873Z,8.47
2018-08-19T11:34:00.310Z,10.10
2018-08-19T11:36:36.886Z,7.37
2018-08-19T11:39:12.193Z,10.53
2018-08-19T11:41:41.962Z,7.83
2018-08-19T11:44:15.994Z,9.03
2018-08-19T11:46:46.211Z,8.43
2018-08-19T11:49:19.285Z,8.53
2018-08-19T11:51:52.722Z,9.53
2018-08-19T11:54:23.736Z,9.47
2018-08-19T11:57:01.916Z,11.23
2018-08-19T11:59:45.277Z,10.05
2018-08-19T12:02:20.357Z,9.87
2018-08-19T12:04:50.918Z,8.23
2018-08-19T12:08:11.632Z,8.23
2018-08-19T12:10:41.058Z,8.93
2018-08-19T12:13:10.686Z,9.23
2018-08-19T12:15:40.642Z,7.93
2018-08-19T12:18:10.279Z,8.28
2018-08-19T12:20:39.985Z,8.20
2018-08-19T12:23:10.866Z,11.45
2018-08-19T12:25:40.487Z,8.63
2018-08-19T12:28:10.151Z,8.20
2018-08-19T12:30:39.901Z,8.17
2018-08-19T12:33:24.551Z,7.97
2018-08-19T12:35:56.819Z,9.83
2018-08-19T12:38:27.141Z,7.63
2018-08-19T12:40:57.170Z,8.27
2018-08-19T12:43:27.557Z,7.43
2018-08-19T12:45:58.370Z,7.77
2018-08-19T12:48:28.687Z,8.37
2018-08-19T12:51:05.548Z,7.42
2018-08-19T12:53:35.860Z,12.90
2018-08-19T12:56:05.961Z,6.93
2018-08-19T12:58:35.791Z,7.17
2018-08-19T13:01:06.157Z,7.97
2018-08-19T13:03:36.316Z,8.73
2018-08-19T13:06:08.031Z,7.12
2018-08-19T13:08:38.254Z,10.03
2018-08-19T13:11:08.952Z,9.27
2018-08-19T13:13:39.144Z,7.37
2018-08-19T13:16:09.124Z,12.03
2018-08-19T13:18:42.164Z,9.10
2018-08-19T13:21:16.270Z,7.63
2018-08-19T13:23:46.639Z,8.40
2018-08-19T13:26:16.505Z,8.63
2018-08-19T13:28:54.517Z,10.25
2018-08-19T13:31:28.165Z,7.33
2018-08-19T13:33:57.590Z,8.20
2018-08-19T13:36:27.082Z,8.83
2018-08-19T13:38:56.506Z,6.73
2018-08-19T13:41:25.965Z,9.03
2018-08-19T13:43:55.477Z,7.67
2018-08-19T13:46:25.063Z,8.40
2018-08-19T13:48:54.537Z,6.00
2018-08-19T13:51:23.971Z,8.55
2018-08-19T13:53:53.652Z,8.00
2018-08-19T13:56:23.517Z,7.75
2018-08-19T13:58:53.018Z,8.58
2018-08-19T14:01:22.445Z,9.77
2018-08-19T14:03:52.092Z,7.77
2018-08-19T14:06:21.976Z,6.60
2018-08-19T14:08:52.776Z,8.10
2018-08-19T14:11:22.399Z,7.53
2018-08-19T14:13:52.280Z,8.37
2018-08-19T14:16:21.970Z,7.97
2018-08-19T14:18:51.547Z,8.27
2018-08-19T14:21:21.072Z,8.63
2018-08-19T14:23:50.736Z,8.40
2018-08-19T14:26:20.324Z,7.43
2018-08-19T14:28:49.827Z,8.10
2018-08-19T14:31:19.247Z,8.98
2018-08-19T14:33:48.825Z,11.57
2018-08-19T14:36:18.418Z,11.13
2018-08-19T14:38:48.170Z,6.53
2018-08-19T14:41:17.748Z,7.17
2018-08-19T14:43:59.494Z,13.17
2018-08-19T14:46:30.197Z,10.97
2018-08-19T14:49:03.914Z,11.83
2018-08-19T14:52:02.399Z,9.93
2018-08-19T14:54:33.429Z,7.85
2018-08-19T14:57:03.618Z,8.37
2018-08-19T14:59:33.107Z,7.60
2018-08-19T15:02:02.797Z,7.15
2018-08-19T15:04:32.197Z,8.45
2018-08-19T15:07:01.907Z,7.10
2018-08-19T15:09:32.543Z,9.45
2018-08-19T15:12:13.101Z,8.00
2018-08-19T15:14:43.323Z,9.85
2018-08-19T15:17:13.007Z,8.28
2018-08-19T15:19:48.627Z,6.85
2018-08-19T15:22:18.652Z,8.83
2018-08-19T15:24:48.616Z,9.07
2018-08-19T15:27:18.728Z,7.22
2018-08-19T15:29:51.704Z,12.50
2018-08-19T15:32:24.308Z,8.93
2018-08-19T15:34:54.371Z,6.43
2018-08-19T15:37:24.345Z,7.15
2018-08-19T15:39:54.367Z,8.70
2018-08-19T15:42:24.423Z,8.20
2018-08-19T15:44:54.446Z,10.70
2018-08-19T15:47:24.427Z,9.20
2018-08-19T15:50:14.065Z,9.18
2018-08-19T15:52:45.164Z,9.23
2018-08-19T15:55:15.554Z,7.23
2018-08-19T15:57:45.452Z,7.87
2018-08-19T16:00:15.551Z,8.07
2018-08-19T16:02:45.505Z,7.07
2018-08-19T16:05:16.482Z,9.20
2018-08-19T16:07:47.335Z,9.73
2018-08-19T16:10:17.479Z,9.37
2018-08-19T16:12:49.894Z,7.90
2018-08-19T16:15:26.051Z,8.90
2018-08-19T16:17:57.261Z,7.27
2018-08-19T16:20:27.447Z,10.67
2018-08-19T16:22:57.525Z,7.83
2018-08-19T16:25:27.415Z,8.87
2018-08-19T16:27:57.517Z,9.20
2018-08-19T16:30:27.774Z,8.70
2018-08-19T16:32:57.840Z,8.30
2018-08-19T16:35:28.005Z,12.68
2018-08-19T16:37:57.960Z,8.70
2018-08-19T16:40:28.204Z,11.50
2018-08-19T16:42:58.160Z,10.23
2018-08-19T16:45:28.286Z,9.78
2018-08-19T16:47:58.330Z,10.50
2018-08-19T16:50:28.921Z,9.63
2018-08-19T16:52:58.849Z,8.83
2018-08-19T16:55:28.891Z,9.45
2018-08-19T16:57:58.966Z,11.08
2018-08-19T17:00:28.909Z,12.13
2018-08-19T17:02:59.025Z,9.53
2018-08-19T17:05:33.451Z,10.00
2018-08-19T17:08:03.510Z,9.07
2018-08-19T17:10:33.137Z,10.53
2018-08-19T17:13:02.567Z,8.77
2018-08-19T17:15:32.565Z,11.10
2018-08-19T17:18:02.548Z,9.27
2018-08-19T17:20:32.535Z,10.97
2018-08-19T17:23:03.624Z,10.30
2018-08-19T17:25:34.727Z,10.60
2018-08-19T17:28:10.646Z,10.57
2018-08-19T17:30:40.849Z,11.83
2018-08-19T17:33:11.460Z,11.40
2018-08-19T17:35:44.226Z,11.67
2018-08-19T17:38:14.552Z,10.20
2018-08-19T17:40:46.105Z,11.03
2018-08-19T17:43:16.054Z,9.43
2018-08-19T17:45:49.889Z,10.07
2018-08-19T17:48:19.994Z,9.40
2018-08-19T17:50:50.416Z,9.00
2018-08-19T17:53:20.414Z,11.90
2018-08-19T17:55:50.379Z,12.30
2018-08-19T17:58:21.760Z,11.20
2018-08-19T18:05:49.965Z,12.73
2018-08-19T18:08:20.161Z,9.70
2018-08-19T18:10:56.192Z,9.90
2018-08-19T18:13:27.004Z,12.27
2018-08-19T18:15:57.507Z,11.00
2018-08-19T18:18:28.572Z,11.50
2018-08-19T18:20:59.351Z,12.57
2018-08-19T18:23:29.522Z,10.73
2018-08-19T18:25:59.648Z,12.47
2018-08-19T18:28:31.075Z,11.93
2018-08-19T18:33:53.109Z,11.60
2018-08-19T18:36:24.638Z,10.38
2018-08-19T18:38:54.714Z,12.63
2018-08-19T18:41:30.114Z,11.20
2018-08-19T18:44:01.663Z,11.80
2018-08-19T18:46:32.339Z,11.35
2018-08-19T18:49:09.552Z,10.70
2018-08-19T18:51:40.966Z,11.40
2018-08-19T18:54:20.705Z,12.17
2018-08-19T18:56:52.037Z,9.77
2018-08-19T18:59:22.765Z,11.40
2018-08-19T19:01:57.944Z,12.97
2018-08-19T19:04:28.276Z,14.57
2018-08-19T19:06:58.389Z,17.33
2018-08-19T19:09:38.832Z,14.30
2018-08-19T19:12:08.970Z,12.30
2018-08-19T19:14:40.930Z,13.58
2018-08-19T19:17:11.406Z,12.05
2018-08-19T19:19:46.498Z,13.75
2018-08-19T19:22:16.674Z,12.75
2018-08-19T19:24:47.051Z,11.80
2018-08-19T19:27:17.315Z,12.30
2018-08-19T19:29:51.795Z,11.03
2018-08-19T19:32:26.026Z,11.15
2018-08-19T19:34:57.704Z,11.40
2018-08-19T19:37:28.107Z,15.35
2018-08-19T19:40:03.701Z,14.73
2018-08-19T19:42:34.339Z,15.97
2018-08-19T19:45:04.599Z,14.68
2018-08-19T19:47:34.910Z,14.68
2018-08-19T19:50:05.745Z,14.07
2018-08-19T19:52:35.871Z,15.97
2018-08-19T19:55:05.955Z,15.77
2018-08-19T19:57:36.112Z,14.25
2018-08-19T20:00:06.074Z,15.50
2018-08-19T20:02:36.262Z,14.57
2018-08-19T20:05:12.330Z,17.48
2018-08-19T20:07:42.688Z,17.00
2018-08-19T20:10:19.580Z,21.53
2018-08-19T20:12:49.565Z,16.93
2018-08-19T20:15:19.933Z,26.80
2018-08-19T20:17:50.034Z,19.43
2018-08-19T20:20:20.332Z,18.15
2018-08-19T20:22:50.546Z,21.48
2018-08-19T20:25:20.844Z,16.77
2018-08-19T20:27:55.448Z,15.20
2018-08-19T20:30:25.306Z,15.23
2018-08-19T20:32:55.130Z,16.57
2018-08-19T20:35:25.240Z,17.82
2018-08-19T20:37:55.957Z,19.03
2018-08-19T20:40:25.786Z,17.53
2018-08-19T20:42:55.610Z,15.98
2018-08-19T20:45:25.312Z,18.65
2018-08-19T20:47:55.398Z,16.73
2018-08-19T20:50:25.302Z,16.60
2018-08-19T20:52:55.403Z,14.53
2018-08-19T20:55:25.697Z,13.25
2018-08-19T20:57:55.716Z,15.57
2018-08-19T21:00:25.811Z,15.03
2018-08-19T21:02:55.844Z,20.80
2018-08-19T21:05:25.814Z,11.57
2018-08-19T21:08:14.794Z,12.80
2018-08-19T21:10:45.696Z,17.47
2018-08-19T21:13:17.091Z,15.80
2018-08-19T21:15:50.691Z,17.95
2018-08-19T21:18:20.815Z,19.83
2018-08-19T21:20:51.077Z,17.43
2018-08-19T21:23:21.105Z,17.42
2018-08-19T21:25:56.305Z,16.97
2018-08-19T21:28:26.385Z,16.30
2018-08-19T21:30:56.594Z,19.87
2018-08-19T21:33:26.719Z,19.77
2018-08-19T21:35:57.396Z,16.40
2018-08-19T21:38:27.546Z,14.58
2018-08-19T21:40:58.526Z,18.17
2018-08-19T21:43:31.376Z,19.47
2018-08-19T21:46:01.949Z,21.00
2018-08-19T21:48:32.105Z,15.40
2018-08-19T21:51:02.100Z,14.67
2018-08-19T21:53:32.242Z,14.37
2018-08-19T21:56:02.221Z,14.87
2018-08-19T21:58:32.019Z,16.10
2018-08-19T22:01:03.381Z,15.80
2018-08-19T22:03:38.606Z,15.18
2018-08-19T22:06:09.587Z,14.57
2018-08-19T22:08:39.625Z,16.00
2018-08-19T22:11:09.582Z,16.83
2018-08-19T22:13:39.465Z,15.63
2018-08-19T22:16:09.374Z,14.57
2018-08-19T22:18:39.500Z,14.97
2018-08-19T22:21:19.137Z,14.37
2018-08-19T22:23:50.310Z,16.35
2018-08-19T22:26:21.324Z,16.70
2018-08-19T22:29:09.215Z,16.10
2018-08-19T22:31:39.226Z,16.73
2018-08-19T22:34:09.334Z,17.50
2018-08-19T22:36:39.265Z,15.53
2018-08-19T22:39:11.763Z,16.40
2018-08-19T22:41:42.153Z,15.77
2018-08-19T22:44:12.334Z,18.07
2018-08-19T22:46:42.488Z,16.27
2018-08-19T22:49:12.707Z,16.27
2018-08-19T22:51:42.920Z,15.87
2018-08-19T22:54:12.745Z,15.47
2018-08-19T22:56:42.599Z,17.00
2018-08-19T22:59:12.505Z,16.70
2018-08-19T23:01:49.019Z,14.38
2018-08-19T23:04:19.020Z,17.12
2018-08-19T23:06:49.031Z,14.87
2018-08-19T23:09:19.104Z,15.10
2018-08-19T23:11:48.985Z,16.37
2018-08-19T23:14:35.281Z,15.97
2018-08-19T23:17:08.645Z,13.43
2018-08-19T23:19:38.755Z,14.03
2018-08-19T23:22:08.728Z,14.77
2018-08-19T23:24:38.774Z,14.10
2018-08-19T23:27:08.785Z,18.60
2018-08-19T23:29:39.059Z,15.70
2018-08-19T23:32:09.170Z,16.40
2018-08-19T23:34:39.110Z,13.90
2018-08-19T23:37:09.074Z,14.07
2018-08-19T23:39:39.064Z,18.33
2018-08-19T23:42:08.930Z,14.87
2018-08-19T23:44:38.895Z,17.10
2018-08-19T23:47:09.165Z,16.63
2018-08-19T23:49:39.058Z,14.43
2018-08-19T23:52:09.144Z,14.13
2018-08-19T23:54:39.139Z,14.43
2018-08-19T23:57:09.104Z,14.25
2018-08-19T23:59:39.273Z,15.65
